sensor_id;sensor_type;location;lat;lon;timestamp;P1;durP1;ratioP1;P2;durP2;ratioP2
34035;SDS011;63481;52.588;22.472;2023-09-19T00:02:55;6.10;;;3.30;;
34035;SDS011;63481;52.588;22.472;2023-09-19T00:07:58;10.60;;;3.60;;
34035;SDS011;63481;52.588;22.472;2023-09-19T00:13:01;16.90;;;3.70;;
34035;SDS011;63481;52.588;22.472;2023-09-19T00:18:08;8.10;;;3.50;;
34035;SDS011;63481;52.588;22.472;2023-09-19T00:23:11;8.20;;;3.30;;
34035;SDS011;63481;52.588;22.472;2023-09-19T00:28:13;8.00;;;3.70;;
34035;SDS011;63481;52.588;22.472;2023-09-19T00:33:18;6.40;;;2.90;;
34035;SDS011;63481;52.588;22.472;2023-09-19T00:38:21;14.20;;;4.40;;
34035;SDS011;63481;52.588;22.472;2023-09-19T00:43:24;9.70;;;3.40;;
34035;SDS011;63481;52.588;22.472;2023-09-19T00:48:26;7.10;;;3.40;;
34035;SDS011;63481;52.588;22.472;2023-09-19T00:53:30;6.40;;;3.20;;
34035;SDS011;63481;52.588;22.472;2023-09-19T00:58:33;5.20;;;2.70;;
34035;SDS011;63481;52.588;22.472;2023-09-19T01:03:37;6.70;;;3.20;;
34035;SDS011;63481;52.588;22.472;2023-09-19T01:08:39;5.60;;;2.80;;
34035;SDS011;63481;52.588;22.472;2023-09-19T01:18:55;6.30;;;2.70;;
34035;SDS011;63481;52.588;22.472;2023-09-19T01:34:22;4.60;;;2.50;;
34035;SDS011;63481;52.588;22.472;2023-09-19T01:39:24;7.60;;;3.50;;
34035;SDS011;63481;52.588;22.472;2023-09-19T01:44:31;9.40;;;3.40;;
34035;SDS011;63481;52.588;22.472;2023-09-19T01:49:56;6.20;;;3.00;;
34035;SDS011;63481;52.588;22.472;2023-09-19T01:55:13;7.50;;;4.30;;
34035;SDS011;63481;52.588;22.472;2023-09-19T02:00:19;10.10;;;3.50;;
34035;SDS011;63481;52.588;22.472;2023-09-19T02:05:23;7.90;;;3.00;;
34035;SDS011;63481;52.588;22.472;2023-09-19T02:10:26;8.10;;;3.70;;
34035;SDS011;63481;52.588;22.472;2023-09-19T02:15:28;8.30;;;3.30;;
34035;SDS011;63481;52.588;22.472;2023-09-19T02:20:30;5.90;;;2.80;;
34035;SDS011;63481;52.588;22.472;2023-09-19T02:25:34;12.90;;;3.40;;
34035;SDS011;63481;52.588;22.472;2023-09-19T02:30:39;8.30;;;3.50;;
34035;SDS011;63481;52.588;22.472;2023-09-19T02:35:41;9.60;;;4.00;;
34035;SDS011;63481;52.588;22.472;2023-09-19T02:40:44;6.20;;;2.80;;
34035;SDS011;63481;52.588;22.472;2023-09-19T02:45:46;7.10;;;3.30;;
34035;SDS011;63481;52.588;22.472;2023-09-19T02:50:51;6.90;;;3.10;;
34035;SDS011;63481;52.588;22.472;2023-09-19T02:55:53;8.40;;;3.40;;
34035;SDS011;63481;52.588;22.472;2023-09-19T03:00:56;10.70;;;3.40;;
34035;SDS011;63481;52.588;22.472;2023-09-19T03:05:59;8.30;;;3.60;;
34035;SDS011;63481;52.588;22.472;2023-09-19T03:11:01;5.30;;;2.80;;
34035;SDS011;63481;52.588;22.472;2023-09-19T03:16:05;7.60;;;3.60;;
34035;SDS011;63481;52.588;22.472;2023-09-19T03:21:08;6.50;;;2.90;;
34035;SDS011;63481;52.588;22.472;2023-09-19T03:26:10;8.70;;;3.80;;
34035;SDS011;63481;52.588;22.472;2023-09-19T03:31:17;6.60;;;3.20;;
34035;SDS011;63481;52.588;22.472;2023-09-19T03:36:21;7.80;;;3.40;;
34035;SDS011;63481;52.588;22.472;2023-09-19T03:41:25;10.40;;;3.40;;
34035;SDS011;63481;52.588;22.472;2023-09-19T03:46:27;6.20;;;2.90;;
34035;SDS011;63481;52.588;22.472;2023-09-19T03:51:30;8.90;;;3.10;;
34035;SDS011;63481;52.588;22.472;2023-09-19T03:56:33;8.10;;;3.60;;
34035;SDS011;63481;52.588;22.472;2023-09-19T04:01:35;6.40;;;3.00;;
34035;SDS011;63481;52.588;22.472;2023-09-19T04:06:37;7.30;;;3.20;;
34035;SDS011;63481;52.588;22.472;2023-09-19T04:11:39;9.30;;;3.90;;
34035;SDS011;63481;52.588;22.472;2023-09-19T04:16:40;7.20;;;3.40;;
34035;SDS011;63481;52.588;22.472;2023-09-19T04:21:42;4.60;;;2.80;;
34035;SDS011;63481;52.588;22.472;2023-09-19T04:26:45;10.10;;;4.90;;
34035;SDS011;63481;52.588;22.472;2023-09-19T04:31:47;9.10;;;3.40;;
34035;SDS011;63481;52.588;22.472;2023-09-19T04:36:49;15.20;;;3.30;;
34035;SDS011;63481;52.588;22.472;2023-09-19T04:41:52;6.00;;;2.90;;
34035;SDS011;63481;52.588;22.472;2023-09-19T04:46:54;7.50;;;3.40;;
34035;SDS011;63481;52.588;22.472;2023-09-19T04:51:56;10.80;;;3.30;;
34035;SDS011;63481;52.588;22.472;2023-09-19T04:56:58;8.40;;;2.40;;
34035;SDS011;63481;52.588;22.472;2023-09-19T05:02:00;4.40;;;2.80;;
34035;SDS011;63481;52.588;22.472;2023-09-19T05:07:02;6.90;;;2.70;;
34035;SDS011;63481;52.588;22.472;2023-09-19T05:12:05;11.00;;;3.80;;
34035;SDS011;63481;52.588;22.472;2023-09-19T05:17:08;8.50;;;3.30;;
34035;SDS011;63481;52.588;22.472;2023-09-19T05:22:10;4.40;;;2.20;;
34035;SDS011;63481;52.588;22.472;2023-09-19T05:27:12;9.50;;;3.60;;
34035;SDS011;63481;52.588;22.472;2023-09-19T05:32:13;6.00;;;2.70;;
34035;SDS011;63481;52.588;22.472;2023-09-19T05:37:16;8.70;;;3.50;;
34035;SDS011;63481;52.588;22.472;2023-09-19T05:42:18;8.50;;;3.60;;
34035;SDS011;63481;52.588;22.472;2023-09-19T05:47:20;6.70;;;2.80;;
34035;SDS011;63481;52.588;22.472;2023-09-19T05:52:24;4.70;;;2.60;;
34035;SDS011;63481;52.588;22.472;2023-09-19T05:57:26;7.80;;;3.10;;
34035;SDS011;63481;52.588;22.472;2023-09-19T06:02:32;9.30;;;3.50;;
34035;SDS011;63481;52.588;22.472;2023-09-19T06:07:35;9.90;;;4.10;;
34035;SDS011;63481;52.588;22.472;2023-09-19T06:12:40;7.60;;;3.00;;
34035;SDS011;63481;52.588;22.472;2023-09-19T06:17:49;8.50;;;3.80;;
34035;SDS011;63481;52.588;22.472;2023-09-19T06:22:52;7.30;;;3.10;;
34035;SDS011;63481;52.588;22.472;2023-09-19T06:27:55;8.50;;;2.90;;
34035;SDS011;63481;52.588;22.472;2023-09-19T06:32:58;6.90;;;3.20;;
34035;SDS011;63481;52.588;22.472;2023-09-19T06:38:02;7.00;;;2.90;;
34035;SDS011;63481;52.588;22.472;2023-09-19T06:43:05;6.60;;;3.40;;
34035;SDS011;63481;52.588;22.472;2023-09-19T06:48:07;7.70;;;2.70;;
34035;SDS011;63481;52.588;22.472;2023-09-19T06:53:11;6.20;;;3.00;;
34035;SDS011;63481;52.588;22.472;2023-09-19T06:58:13;7.30;;;3.10;;
34035;SDS011;63481;52.588;22.472;2023-09-19T07:03:15;6.00;;;3.10;;
34035;SDS011;63481;52.588;22.472;2023-09-19T07:08:22;5.20;;;2.40;;
34035;SDS011;63481;52.588;22.472;2023-09-19T07:13:24;6.10;;;2.60;;
34035;SDS011;63481;52.588;22.472;2023-09-19T07:18:26;6.50;;;2.60;;
34035;SDS011;63481;52.588;22.472;2023-09-19T07:23:29;4.20;;;2.20;;
34035;SDS011;63481;52.588;22.472;2023-09-19T07:28:31;5.90;;;2.40;;
34035;SDS011;63481;52.588;22.472;2023-09-19T07:33:34;5.20;;;2.20;;
34035;SDS011;63481;52.588;22.472;2023-09-19T07:38:36;8.40;;;2.50;;
34035;SDS011;63481;52.588;22.472;2023-09-19T07:43:38;7.10;;;2.30;;
34035;SDS011;63481;52.588;22.472;2023-09-19T07:48:41;7.20;;;2.70;;
34035;SDS011;63481;52.588;22.472;2023-09-19T07:53:49;6.70;;;2.90;;
34035;SDS011;63481;52.588;22.472;2023-09-19T07:58:51;4.70;;;2.30;;
34035;SDS011;63481;52.588;22.472;2023-09-19T08:03:53;5.20;;;2.40;;
34035;SDS011;63481;52.588;22.472;2023-09-19T08:08:55;7.70;;;2.70;;
34035;SDS011;63481;52.588;22.472;2023-09-19T08:13:58;6.40;;;2.90;;
34035;SDS011;63481;52.588;22.472;2023-09-19T08:19:00;7.90;;;2.80;;
34035;SDS011;63481;52.588;22.472;2023-09-19T08:24:02;6.00;;;2.20;;
34035;SDS011;63481;52.588;22.472;2023-09-19T08:29:07;4.50;;;2.20;;
34035;SDS011;63481;52.588;22.472;2023-09-19T08:34:13;4.20;;;1.80;;
34035;SDS011;63481;52.588;22.472;2023-09-19T08:39:15;6.40;;;2.20;;
34035;SDS011;63481;52.588;22.472;2023-09-19T08:44:18;9.80;;;2.90;;
34035;SDS011;63481;52.588;22.472;2023-09-19T08:49:33;9.10;;;3.30;;
34035;SDS011;63481;52.588;22.472;2023-09-19T08:54:43;6.60;;;2.60;;
34035;SDS011;63481;52.588;22.472;2023-09-19T08:59:48;7.10;;;3.00;;
34035;SDS011;63481;52.588;22.472;2023-09-19T09:04:51;5.30;;;2.50;;
34035;SDS011;63481;52.588;22.472;2023-09-19T09:09:54;4.50;;;2.00;;
34035;SDS011;63481;52.588;22.472;2023-09-19T09:14:56;7.00;;;2.50;;
34035;SDS011;63481;52.588;22.472;2023-09-19T09:19:59;9.10;;;2.90;;
34035;SDS011;63481;52.588;22.472;2023-09-19T09:25:01;5.00;;;2.50;;
34035;SDS011;63481;52.588;22.472;2023-09-19T09:30:05;4.70;;;2.30;;
34035;SDS011;63481;52.588;22.472;2023-09-19T09:35:08;12.90;;;2.50;;
34035;SDS011;63481;52.588;22.472;2023-09-19T09:40:12;6.40;;;2.40;;
34035;SDS011;63481;52.588;22.472;2023-09-19T09:45:22;4.90;;;2.50;;
34035;SDS011;63481;52.588;22.472;2023-09-19T09:50:34;5.30;;;2.20;;
34035;SDS011;63481;52.588;22.472;2023-09-19T09:56:03;5.50;;;2.60;;
34035;SDS011;63481;52.588;22.472;2023-09-19T10:01:08;6.30;;;2.50;;
34035;SDS011;63481;52.588;22.472;2023-09-19T10:06:11;7.50;;;3.00;;
34035;SDS011;63481;52.588;22.472;2023-09-19T10:11:26;7.50;;;2.90;;
34035;SDS011;63481;52.588;22.472;2023-09-19T10:16:32;8.90;;;3.00;;
34035;SDS011;63481;52.588;22.472;2023-09-19T10:21:37;6.50;;;3.20;;
34035;SDS011;63481;52.588;22.472;2023-09-19T10:26:41;6.80;;;3.00;;
34035;SDS011;63481;52.588;22.472;2023-09-19T10:31:46;4.30;;;2.40;;
34035;SDS011;63481;52.588;22.472;2023-09-19T10:36:49;5.70;;;2.90;;
34035;SDS011;63481;52.588;22.472;2023-09-19T10:47:00;5.50;;;2.50;;
34035;SDS011;63481;52.588;22.472;2023-09-19T10:52:04;3.80;;;2.30;;
34035;SDS011;63481;52.588;22.472;2023-09-19T10:57:09;6.50;;;2.70;;
34035;SDS011;63481;52.588;22.472;2023-09-19T11:02:16;13.40;;;3.30;;
34035;SDS011;63481;52.588;22.472;2023-09-19T11:07:19;5.40;;;2.30;;
34035;SDS011;63481;52.588;22.472;2023-09-19T11:17:42;6.80;;;3.20;;
34035;SDS011;63481;52.588;22.472;2023-09-19T11:33:15;7.30;;;2.90;;
34035;SDS011;63481;52.588;22.472;2023-09-19T11:43:44;6.40;;;2.70;;
34035;SDS011;63481;52.588;22.472;2023-09-19T11:48:47;11.40;;;4.00;;
34035;SDS011;63481;52.588;22.472;2023-09-19T11:53:51;6.10;;;2.60;;
34035;SDS011;63481;52.588;22.472;2023-09-19T11:58:55;6.50;;;2.80;;
34035;SDS011;63481;52.588;22.472;2023-09-19T12:09:00;7.50;;;3.30;;
34035;SDS011;63481;52.588;22.472;2023-09-19T12:14:08;8.80;;;4.10;;
34035;SDS011;63481;52.588;22.472;2023-09-19T12:19:20;9.70;;;4.30;;
34035;SDS011;63481;52.588;22.472;2023-09-19T12:24:24;7.70;;;3.60;;
34035;SDS011;63481;52.588;22.472;2023-09-19T12:29:28;10.20;;;4.10;;
34035;SDS011;63481;52.588;22.472;2023-09-19T12:34:31;9.30;;;4.30;;
34035;SDS011;63481;52.588;22.472;2023-09-19T12:39:44;9.60;;;4.80;;
34035;SDS011;63481;52.588;22.472;2023-09-19T12:44:55;10.50;;;4.40;;
34035;SDS011;63481;52.588;22.472;2023-09-19T12:50:11;11.50;;;5.80;;
34035;SDS011;63481;52.588;22.472;2023-09-19T12:55:24;10.30;;;5.00;;
34035;SDS011;63481;52.588;22.472;2023-09-19T13:00:34;12.60;;;4.20;;
34035;SDS011;63481;52.588;22.472;2023-09-19T13:05:48;12.70;;;5.00;;
34035;SDS011;63481;52.588;22.472;2023-09-19T13:16:19;16.60;;;5.70;;
34035;SDS011;63481;52.588;22.472;2023-09-19T13:21:31;9.80;;;5.00;;
34035;SDS011;63481;52.588;22.472;2023-09-19T13:26:38;12.40;;;4.80;;
34035;SDS011;63481;52.588;22.472;2023-09-19T13:31:40;9.20;;;3.90;;
34035;SDS011;63481;52.588;22.472;2023-09-19T13:36:43;7.10;;;3.80;;
34035;SDS011;63481;52.588;22.472;2023-09-19T13:41:46;7.40;;;4.00;;
34035;SDS011;63481;52.588;22.472;2023-09-19T13:46:49;10.80;;;3.70;;
34035;SDS011;63481;52.588;22.472;2023-09-19T13:51:52;4.80;;;2.70;;
34035;SDS011;63481;52.588;22.472;2023-09-19T13:56:57;3.50;;;2.00;;
34035;SDS011;63481;52.588;22.472;2023-09-19T14:01:59;3.40;;;1.60;;
34035;SDS011;63481;52.588;22.472;2023-09-19T14:07:01;4.30;;;2.20;;
34035;SDS011;63481;52.588;22.472;2023-09-19T14:12:03;4.90;;;2.20;;
34035;SDS011;63481;52.588;22.472;2023-09-19T14:17:06;3.20;;;1.70;;
34035;SDS011;63481;52.588;22.472;2023-09-19T14:22:09;7.40;;;2.70;;
34035;SDS011;63481;52.588;22.472;2023-09-19T14:27:11;9.90;;;3.10;;
34035;SDS011;63481;52.588;22.472;2023-09-19T14:32:13;6.50;;;2.50;;
34035;SDS011;63481;52.588;22.472;2023-09-19T14:37:16;5.40;;;2.60;;
34035;SDS011;63481;52.588;22.472;2023-09-19T14:42:17;10.00;;;4.00;;
34035;SDS011;63481;52.588;22.472;2023-09-19T14:47:20;8.60;;;4.00;;
34035;SDS011;63481;52.588;22.472;2023-09-19T14:52:22;6.30;;;2.90;;
34035;SDS011;63481;52.588;22.472;2023-09-19T14:57:25;6.70;;;3.20;;
34035;SDS011;63481;52.588;22.472;2023-09-19T15:02:27;6.20;;;3.30;;
34035;SDS011;63481;52.588;22.472;2023-09-19T15:07:29;5.90;;;2.90;;
34035;SDS011;63481;52.588;22.472;2023-09-19T15:12:31;9.00;;;3.70;;
34035;SDS011;63481;52.588;22.472;2023-09-19T15:17:34;3.70;;;1.70;;
34035;SDS011;63481;52.588;22.472;2023-09-19T15:22:37;3.90;;;2.40;;
34035;SDS011;63481;52.588;22.472;2023-09-19T15:27:40;6.90;;;2.70;;
34035;SDS011;63481;52.588;22.472;2023-09-19T15:32:43;6.20;;;2.80;;
34035;SDS011;63481;52.588;22.472;2023-09-19T15:37:45;5.90;;;2.20;;
34035;SDS011;63481;52.588;22.472;2023-09-19T15:42:47;7.20;;;3.00;;
34035;SDS011;63481;52.588;22.472;2023-09-19T15:47:49;6.10;;;2.90;;
34035;SDS011;63481;52.588;22.472;2023-09-19T15:52:52;4.50;;;2.40;;
34035;SDS011;63481;52.588;22.472;2023-09-19T15:57:58;6.30;;;2.80;;
34035;SDS011;63481;52.588;22.472;2023-09-19T16:03:00;5.90;;;2.00;;
34035;SDS011;63481;52.588;22.472;2023-09-19T16:08:03;2.80;;;1.90;;
34035;SDS011;63481;52.588;22.472;2023-09-19T16:13:06;6.90;;;2.20;;
34035;SDS011;63481;52.588;22.472;2023-09-19T16:18:08;4.30;;;2.10;;
34035;SDS011;63481;52.588;22.472;2023-09-19T16:23:10;4.60;;;2.30;;
34035;SDS011;63481;52.588;22.472;2023-09-19T16:28:12;5.70;;;2.40;;
34035;SDS011;63481;52.588;22.472;2023-09-19T16:33:15;6.40;;;2.70;;
34035;SDS011;63481;52.588;22.472;2023-09-19T16:38:17;5.30;;;2.60;;
34035;SDS011;63481;52.588;22.472;2023-09-19T16:43:19;7.50;;;3.00;;
34035;SDS011;63481;52.588;22.472;2023-09-19T16:53:25;4.30;;;2.10;;
34035;SDS011;63481;52.588;22.472;2023-09-19T16:58:27;5.10;;;2.60;;
34035;SDS011;63481;52.588;22.472;2023-09-19T17:03:31;5.20;;;2.40;;
34035;SDS011;63481;52.588;22.472;2023-09-19T17:08:34;7.50;;;2.50;;
34035;SDS011;63481;52.588;22.472;2023-09-19T17:13:36;5.90;;;2.90;;
34035;SDS011;63481;52.588;22.472;2023-09-19T17:18:39;6.70;;;2.10;;
34035;SDS011;63481;52.588;22.472;2023-09-19T17:23:42;4.10;;;2.20;;
34035;SDS011;63481;52.588;22.472;2023-09-19T17:28:44;4.90;;;2.90;;
34035;SDS011;63481;52.588;22.472;2023-09-19T17:33:48;5.10;;;2.70;;
34035;SDS011;63481;52.588;22.472;2023-09-19T17:38:53;9.80;;;4.10;;
34035;SDS011;63481;52.588;22.472;2023-09-19T17:43:58;6.50;;;2.40;;
34035;SDS011;63481;52.588;22.472;2023-09-19T17:49:00;6.30;;;2.50;;
34035;SDS011;63481;52.588;22.472;2023-09-19T17:54:03;6.50;;;3.20;;
34035;SDS011;63481;52.588;22.472;2023-09-19T17:59:06;4.70;;;2.50;;
34035;SDS011;63481;52.588;22.472;2023-09-19T18:04:08;8.90;;;3.30;;
34035;SDS011;63481;52.588;22.472;2023-09-19T18:09:10;7.70;;;3.10;;
34035;SDS011;63481;52.588;22.472;2023-09-19T18:14:12;9.00;;;3.70;;
34035;SDS011;63481;52.588;22.472;2023-09-19T18:19:16;8.40;;;3.30;;
34035;SDS011;63481;52.588;22.472;2023-09-19T18:24:18;9.50;;;3.80;;
34035;SDS011;63481;52.588;22.472;2023-09-19T18:29:20;9.10;;;3.60;;
34035;SDS011;63481;52.588;22.472;2023-09-19T18:34:22;8.20;;;3.70;;
34035;SDS011;63481;52.588;22.472;2023-09-19T18:39:24;7.30;;;3.80;;
34035;SDS011;63481;52.588;22.472;2023-09-19T18:44:27;8.50;;;4.00;;
34035;SDS011;63481;52.588;22.472;2023-09-19T18:49:29;7.40;;;3.80;;
34035;SDS011;63481;52.588;22.472;2023-09-19T18:54:31;7.80;;;3.70;;
34035;SDS011;63481;52.588;22.472;2023-09-19T18:59:33;10.10;;;4.60;;
34035;SDS011;63481;52.588;22.472;2023-09-19T19:04:35;9.40;;;4.40;;
34035;SDS011;63481;52.588;22.472;2023-09-19T19:09:41;10.10;;;4.00;;
34035;SDS011;63481;52.588;22.472;2023-09-19T19:14:43;8.10;;;4.10;;
34035;SDS011;63481;52.588;22.472;2023-09-19T19:19:46;8.10;;;3.90;;
34035;SDS011;63481;52.588;22.472;2023-09-19T19:24:48;8.10;;;3.90;;
34035;SDS011;63481;52.588;22.472;2023-09-19T19:29:49;9.70;;;4.30;;
34035;SDS011;63481;52.588;22.472;2023-09-19T19:34:52;8.30;;;4.10;;
34035;SDS011;63481;52.588;22.472;2023-09-19T19:39:56;15.00;;;4.40;;
34035;SDS011;63481;52.588;22.472;2023-09-19T19:44:58;14.70;;;4.90;;
34035;SDS011;63481;52.588;22.472;2023-09-19T19:50:00;10.90;;;4.60;;
34035;SDS011;63481;52.588;22.472;2023-09-19T19:55:02;10.30;;;4.70;;
34035;SDS011;63481;52.588;22.472;2023-09-19T20:00:05;9.30;;;4.10;;
34035;SDS011;63481;52.588;22.472;2023-09-19T20:05:08;10.50;;;5.00;;
34035;SDS011;63481;52.588;22.472;2023-09-19T20:10:10;10.10;;;4.40;;
34035;SDS011;63481;52.588;22.472;2023-09-19T20:15:17;8.40;;;4.00;;
34035;SDS011;63481;52.588;22.472;2023-09-19T20:20:19;11.40;;;4.90;;
34035;SDS011;63481;52.588;22.472;2023-09-19T20:25:23;8.70;;;4.70;;
34035;SDS011;63481;52.588;22.472;2023-09-19T20:30:29;11.80;;;5.40;;
34035;SDS011;63481;52.588;22.472;2023-09-19T20:35:34;6.70;;;3.50;;
34035;SDS011;63481;52.588;22.472;2023-09-19T20:40:40;8.40;;;4.10;;
34035;SDS011;63481;52.588;22.472;2023-09-19T20:45:44;9.70;;;4.50;;
34035;SDS011;63481;52.588;22.472;2023-09-19T20:50:46;13.20;;;4.20;;
34035;SDS011;63481;52.588;22.472;2023-09-19T20:55:48;9.40;;;4.40;;
34035;SDS011;63481;52.588;22.472;2023-09-19T21:00:52;9.10;;;4.00;;
34035;SDS011;63481;52.588;22.472;2023-09-19T21:06:03;9.30;;;4.30;;
34035;SDS011;63481;52.588;22.472;2023-09-19T21:11:13;10.10;;;3.90;;
34035;SDS011;63481;52.588;22.472;2023-09-19T21:16:16;6.80;;;3.20;;
34035;SDS011;63481;52.588;22.472;2023-09-19T21:21:18;7.00;;;3.50;;
34035;SDS011;63481;52.588;22.472;2023-09-19T21:26:22;6.60;;;3.50;;
34035;SDS011;63481;52.588;22.472;2023-09-19T21:31:24;6.60;;;3.00;;
34035;SDS011;63481;52.588;22.472;2023-09-19T21:36:26;6.40;;;3.30;;
34035;SDS011;63481;52.588;22.472;2023-09-19T21:41:33;9.00;;;3.80;;
34035;SDS011;63481;52.588;22.472;2023-09-19T21:46:35;7.10;;;3.30;;
34035;SDS011;63481;52.588;22.472;2023-09-19T21:51:37;7.20;;;3.80;;
34035;SDS011;63481;52.588;22.472;2023-09-19T21:56:39;6.90;;;3.80;;
34035;SDS011;63481;52.588;22.472;2023-09-19T22:01:42;9.00;;;4.00;;
34035;SDS011;63481;52.588;22.472;2023-09-19T22:06:44;6.70;;;3.50;;
34035;SDS011;63481;52.588;22.472;2023-09-19T22:11:45;7.70;;;3.20;;
34035;SDS011;63481;52.588;22.472;2023-09-19T22:16:48;6.90;;;3.00;;
34035;SDS011;63481;52.588;22.472;2023-09-19T22:21:49;7.10;;;3.30;;
34035;SDS011;63481;52.588;22.472;2023-09-19T22:26:54;7.10;;;3.10;;
34035;SDS011;63481;52.588;22.472;2023-09-19T22:31:56;5.90;;;3.20;;
34035;SDS011;63481;52.588;22.472;2023-09-19T22:37:00;5.10;;;2.60;;
34035;SDS011;63481;52.588;22.472;2023-09-19T22:42:03;6.10;;;3.10;;
34035;SDS011;63481;52.588;22.472;2023-09-19T22:47:12;5.70;;;2.80;;
34035;SDS011;63481;52.588;22.472;2023-09-19T22:52:14;6.90;;;3.50;;
34035;SDS011;63481;52.588;22.472;2023-09-19T22:57:18;6.00;;;3.30;;
34035;SDS011;63481;52.588;22.472;2023-09-19T23:02:21;4.50;;;2.60;;
34035;SDS011;63481;52.588;22.472;2023-09-19T23:07:29;6.90;;;2.90;;
34035;SDS011;63481;52.588;22.472;2023-09-19T23:12:31;8.10;;;3.00;;
34035;SDS011;63481;52.588;22.472;2023-09-19T23:17:33;9.10;;;3.60;;
34035;SDS011;63481;52.588;22.472;2023-09-19T23:22:37;5.50;;;2.90;;
34035;SDS011;63481;52.588;22.472;2023-09-19T23:27:42;7.10;;;3.40;;
34035;SDS011;63481;52.588;22.472;2023-09-19T23:32:49;8.70;;;3.40;;
34035;SDS011;63481;52.588;22.472;2023-09-19T23:37:51;7.60;;;3.40;;
34035;SDS011;63481;52.588;22.472;2023-09-19T23:42:53;6.50;;;3.50;;
34035;SDS011;63481;52.588;22.472;2023-09-19T23:47:56;6.30;;;3.10;;
34035;SDS011;63481;52.588;22.472;2023-09-19T23:52:58;8.30;;;3.20;;
34035;SDS011;63481;52.588;22.472;2023-09-19T23:58:05;8.40;;;3.50;;
